Time;durP1;ratioP1;P1;durP2;ratioP2;P2;SDS_P1;SDS_P2;PMS_P1;PMS_P2;Temp;Humidity;BMP_temperature;BMP_pressure;BME280_temperature;BME280_humidity;BME280_pressure;Samples;Min_cycle;Max_cycle;Signal;HPM_P1;HPM_P2
2021/07/22 00:01:02;;;;;;;21.75;8.38;;;;;;;;;;5020175;28;20092;-55
2021/07/22 00:03:28;;;;;;;22.33;7.88;;;;;;;;;;5037572;28;20107;-56
2021/07/22 00:05:55;;;;;;;19.23;7.50;;;;;;;;;;5021382;28;20049;-55
2021/07/22 00:08:24;;;;;;;19.48;8.55;;;;;;;;;;5041578;28;20049;-56
2021/07/22 00:10:50;;;;;;;18.30;7.97;;;;;;;;;;5021934;28;20054;-55
2021/07/22 00:13:17;;;;;;;15.30;7.45;;;;;;;;;;5011264;28;20056;-55
2021/07/22 00:15:43;;;;;;;20.25;7.97;;;;;;;;;;5018140;28;20037;-55
2021/07/22 00:18:10;;;;;;;17.77;7.10;;;;;;;;;;5039603;28;20095;-53
2021/07/22 00:20:36;;;;;;;20.38;8.13;;;;;;;;;;5036444;28;20127;-54
2021/07/22 00:23:03;;;;;;;16.35;7.85;;;;;;;;;;5038493;28;20048;-54
2021/07/22 00:25:30;;;;;;;22.17;8.05;;;;;;;;;;5041007;28;20037;-55
2021/07/22 00:27:58;;;;;;;19.63;8.25;;;;;;;;;;5020177;28;20045;-56
2021/07/22 00:30:25;;;;;;;17.27;8.02;;;;;;;;;;5022672;28;20034;-56
2021/07/22 00:32:51;;;;;;;19.02;8.02;;;;;;;;;;5021016;28;20033;-55
2021/07/22 00:35:17;;;;;;;18.48;7.90;;;;;;;;;;5005419;28;20105;-56
2021/07/22 00:37:44;;;;;;;18.90;7.03;;;;;;;;;;5011977;28;20037;-57
2021/07/22 00:40:11;;;;;;;14.60;7.25;;;;;;;;;;5040007;28;20033;-55
2021/07/22 00:42:56;;;;;;;18.58;7.97;;;;;;;;;;5030214;28;20057;-55
2021/07/22 00:45:24;;;;;;;19.00;8.30;;;;;;;;;;5039237;28;20044;-56
2021/07/22 00:47:51;;;;;;;20.60;8.30;;;;;;;;;;5019900;28;20153;-55
2021/07/22 00:50:18;;;;;;;19.08;8.00;;;;;;;;;;5040160;28;21625;-55
2021/07/22 00:52:46;;;;;;;16.67;7.97;;;;;;;;;;5032692;28;20046;-53
2021/07/22 00:55:13;;;;;;;19.08;7.80;;;;;;;;;;5032557;28;20058;-57
2021/07/22 00:57:40;;;;;;;17.10;8.32;;;;;;;;;;5022242;28;20119;-57
2021/07/22 01:00:07;;;;;;;16.88;8.68;;;;;;;;;;5041147;28;20130;-54
2021/07/22 01:02:37;;;;;;;22.08;9.02;;;;;;;;;;5038478;28;20064;-55
2021/07/22 01:05:04;;;;;;;20.67;9.20;;;;;;;;;;5039443;28;20057;-54
2021/07/22 01:07:31;;;;;;;19.15;8.95;;;;;;;;;;5038742;28;20057;-54
2021/07/22 01:09:57;;;;;;;20.42;9.27;;;;;;;;;;5030427;28;20057;-54
2021/07/22 01:12:24;;;;;;;19.27;9.32;;;;;;;;;;5027037;28;20038;-55
2021/07/22 01:14:50;;;;;;;20.73;9.57;;;;;;;;;;5021571;28;20049;-55
2021/07/22 01:17:22;;;;;;;22.42;9.82;;;;;;;;;;5025514;28;20037;-55
2021/07/22 01:19:50;;;;;;;21.60;9.70;;;;;;;;;;5021176;28;20100;-55
2021/07/22 01:22:18;;;;;;;20.55;10.00;;;;;;;;;;5022197;28;20029;-56
2021/07/22 01:24:44;;;;;;;22.15;10.68;;;;;;;;;;5024687;28;20033;-55
2021/07/22 01:27:11;;;;;;;23.55;10.30;;;;;;;;;;5043618;28;20126;-52
2021/07/22 01:29:38;;;;;;;24.50;10.52;;;;;;;;;;5023488;28;20045;-54
2021/07/22 01:32:05;;;;;;;24.38;10.18;;;;;;;;;;5028154;28;20037;-55
2021/07/22 01:34:31;;;;;;;20.00;9.90;;;;;;;;;;5013490;28;20105;-56
2021/07/22 01:36:58;;;;;;;21.60;9.95;;;;;;;;;;5023050;28;20044;-55
2021/07/22 01:39:26;;;;;;;20.95;10.18;;;;;;;;;;5021596;28;20066;-52
2021/07/22 01:41:52;;;;;;;23.50;9.95;;;;;;;;;;5023819;28;20198;-55
2021/07/22 01:44:19;;;;;;;24.40;9.77;;;;;;;;;;5026952;28;20041;-54
2021/07/22 01:46:45;;;;;;;22.73;10.30;;;;;;;;;;5041490;28;20037;-54
2021/07/22 01:49:12;;;;;;;22.98;9.93;;;;;;;;;;5039756;28;20041;-54
2021/07/22 01:51:38;;;;;;;28.45;10.45;;;;;;;;;;5042350;28;20114;-54
2021/07/22 01:54:05;;;;;;;20.20;9.77;;;;;;;;;;5027210;28;20041;-53
2021/07/22 01:56:35;;;;;;;23.13;10.13;;;;;;;;;;5023056;28;20041;-54
2021/07/22 01:59:01;;;;;;;21.45;10.23;;;;;;;;;;5021423;28;20038;-55
2021/07/22 02:01:28;;;;;;;19.05;9.10;;;;;;;;;;5030663;28;20057;-55
2021/07/22 02:03:54;;;;;;;22.48;9.25;;;;;;;;;;5027321;28;20038;-53
2021/07/22 02:06:21;;;;;;;19.83;9.32;;;;;;;;;;5024719;28;20060;-56
2021/07/22 02:08:47;;;;;;;20.55;10.32;;;;;;;;;;5043493;28;20041;-55
2021/07/22 02:11:14;;;;;;;18.55;9.52;;;;;;;;;;5011642;28;20127;-55
2021/07/22 02:13:42;;;;;;;24.00;10.25;;;;;;;;;;5022832;28;20030;-54
2021/07/22 02:16:09;;;;;;;18.75;9.02;;;;;;;;;;5003850;28;20053;-56
2021/07/22 02:18:35;;;;;;;20.52;9.48;;;;;;;;;;5005427;28;20086;-55
2021/07/22 02:21:04;;;;;;;18.70;8.77;;;;;;;;;;5025567;28;20175;-55
2021/07/22 02:23:30;;;;;;;;;;;;;;;;;;5042787;28;20037;-55
2021/07/22 02:25:57;;;;;;;18.55;8.32;;;;;;;;;;5035510;28;19929;-55
2021/07/22 02:28:23;;;;;;;18.50;8.85;;;;;;;;;;5037867;28;20064;-54
2021/07/22 02:30:54;;;;;;;18.55;8.05;;;;;;;;;;5035603;28;20042;-56
2021/07/22 02:33:20;;;;;;;20.20;8.27;;;;;;;;;;5043281;28;20037;-55
2021/07/22 02:35:46;;;;;;;17.27;8.32;;;;;;;;;;5040818;28;20049;-55
2021/07/22 02:38:13;;;;;;;21.13;9.00;;;;;;;;;;5021845;28;20120;-55
2021/07/22 02:40:40;;;;;;;18.98;8.38;;;;;;;;;;5038200;28;20042;-54
2021/07/22 02:43:06;;;;;;;18.42;8.50;;;;;;;;;;5025274;28;20041;-53
2021/07/22 02:45:33;;;;;;;23.63;9.20;;;;;;;;;;5024543;28;20041;-56
2021/07/22 02:48:01;;;;;;;19.00;8.50;;;;;;;;;;5037786;28;20029;-56
2021/07/22 02:50:27;;;;;;;22.48;9.57;;;;;;;;;;5042964;28;20052;-56
2021/07/22 02:52:54;;;;;;;20.83;8.52;;;;;;;;;;5037703;28;20056;-54
2021/07/22 02:55:20;;;;;;;20.00;8.82;;;;;;;;;;5024754;28;20052;-54
2021/07/22 02:57:47;;;;;;;20.85;7.97;;;;;;;;;;5049324;28;20091;-55
2021/07/22 03:00:14;;;;;;;21.45;9.02;;;;;;;;;;5041925;28;20033;-52
2021/07/22 03:02:40;;;;;;;20.70;9.00;;;;;;;;;;5039624;28;20127;-55
2021/07/22 03:05:09;;;;;;;20.60;7.90;;;;;;;;;;5042833;28;20044;-56
2021/07/22 03:07:36;;;;;;;18.55;8.32;;;;;;;;;;5037998;28;20041;-54
2021/07/22 03:10:02;;;;;;;22.23;8.07;;;;;;;;;;5025934;28;20045;-54
2021/07/22 03:12:29;;;;;;;18.17;8.27;;;;;;;;;;5037513;28;20037;-53
2021/07/22 03:14:55;;;;;;;16.65;8.20;;;;;;;;;;5041674;28;20056;-56
2021/07/22 03:17:22;;;;;;;22.10;8.70;;;;;;;;;;5041378;28;20048;-53
2021/07/22 03:19:49;;;;;;;18.30;8.18;;;;;;;;;;5000275;28;20025;-55
2021/07/22 03:22:16;;;;;;;24.52;8.82;;;;;;;;;;5022485;28;20042;-55
2021/07/22 03:24:43;;;;;;;20.33;8.02;;;;;;;;;;5019618;28;20045;-53
2021/07/22 03:27:12;;;;;;;27.02;9.02;;;;;;;;;;5038358;28;20057;-52
2021/07/22 03:29:39;;;;;;;21.02;8.52;;;;;;;;;;5007899;28;20053;-50
2021/07/22 03:32:07;;;;;;;18.15;8.27;;;;;;;;;;5006266;28;20042;-54
2021/07/22 03:34:33;;;;;;;20.30;8.47;;;;;;;;;;5014594;28;20083;-56
2021/07/22 03:37:08;;;;;;;17.27;7.75;;;;;;;;;;5044455;28;20037;-54
2021/07/22 03:39:36;;;;;;;20.67;8.93;;;;;;;;;;5030118;28;20041;-53
2021/07/22 03:42:03;;;;;;;21.90;7.80;;;;;;;;;;5020652;28;20119;-54
2021/07/22 03:44:29;;;;;;;18.52;8.20;;;;;;;;;;5021855;28;20091;-54
2021/07/22 03:46:56;;;;;;;18.77;8.25;;;;;;;;;;5041544;28;20041;-57
2021/07/22 03:49:25;;;;;;;18.42;7.97;;;;;;;;;;5037856;28;20037;-56
2021/07/22 03:51:51;;;;;;;;;;;;;;;;;;5044701;28;20041;-56
2021/07/22 03:54:17;;;;;;;18.33;7.18;;;;;;;;;;5035746;28;19936;-54
2021/07/22 03:56:45;;;;;;;17.25;7.35;;;;;;;;;;5039008;28;20042;-55
2021/07/22 03:59:12;;;;;;;17.35;6.88;;;;;;;;;;5018928;28;20049;-55
2021/07/22 04:01:38;;;;;;;18.20;7.78;;;;;;;;;;5029334;28;20049;-56
2021/07/22 04:04:05;;;;;;;20.13;7.72;;;;;;;;;;5010515;28;20034;-55
2021/07/22 04:06:34;;;;;;;20.83;8.13;;;;;;;;;;4997876;28;20053;-55
2021/07/22 04:09:01;;;;;;;18.00;7.90;;;;;;;;;;5004036;28;20041;-52
2021/07/22 04:11:27;;;;;;;19.20;8.30;;;;;;;;;;4998730;28;20045;-55
2021/07/22 04:13:58;;;;;;;21.10;7.97;;;;;;;;;;5003536;28;20144;-55
2021/07/22 04:16:25;;;;;;;16.67;8.07;;;;;;;;;;4998552;28;20034;-53
2021/07/22 04:18:51;;;;;;;19.50;7.82;;;;;;;;;;5002551;28;20058;-54
2021/07/22 04:21:18;;;;;;;19.35;8.70;;;;;;;;;;4992359;28;20084;-54
2021/07/22 04:23:44;;;;;;;22.70;8.88;;;;;;;;;;4998672;28;20042;-54
2021/07/22 04:26:14;;;;;;;20.05;8.32;;;;;;;;;;4981670;28;20090;-54
2021/07/22 04:28:42;;;;;;;16.42;7.32;;;;;;;;;;4999353;28;20146;-55
2021/07/22 04:31:14;;;;;;;19.75;8.02;;;;;;;;;;4984521;28;20038;-54
2021/07/22 04:33:41;;;;;;;17.45;7.80;;;;;;;;;;5003269;28;20041;-52
2021/07/22 04:36:08;;;;;;;17.55;8.45;;;;;;;;;;5005329;28;20041;-54
2021/07/22 04:38:37;;;;;;;17.77;7.47;;;;;;;;;;4983279;28;20039;-55
2021/07/22 04:41:04;;;;;;;19.25;8.00;;;;;;;;;;4998665;28;20121;-55
2021/07/22 04:43:30;;;;;;;18.63;8.10;;;;;;;;;;5008538;28;20054;-52
2021/07/22 04:45:57;;;;;;;20.70;8.48;;;;;;;;;;5022334;28;20108;-55
2021/07/22 04:48:25;;;;;;;19.33;8.40;;;;;;;;;;5018553;28;20042;-56
2021/07/22 04:50:52;;;;;;;16.08;8.02;;;;;;;;;;4993482;28;20139;-53
2021/07/22 04:53:18;;;;;;;21.42;8.20;;;;;;;;;;4992455;28;20046;-54
2021/07/22 04:55:45;;;;;;;18.05;7.68;;;;;;;;;;5005246;28;20057;-55
2021/07/22 04:58:12;;;;;;;17.35;8.23;;;;;;;;;;4992892;28;20144;-53
2021/07/22 05:00:38;;;;;;;22.95;9.48;;;;;;;;;;4999695;28;20027;-52
2021/07/22 05:03:05;;;;;;;21.38;8.55;;;;;;;;;;5001753;28;20042;-52
2021/07/22 05:05:36;;;;;;;21.38;7.85;;;;;;;;;;5041975;28;20037;-53
2021/07/22 05:08:05;;;;;;;21.25;8.93;;;;;;;;;;5014961;28;20104;-50
2021/07/22 05:10:32;;;;;;;16.73;7.85;;;;;;;;;;5040175;28;20061;-55
2021/07/22 05:12:59;;;;;;;16.60;7.82;;;;;;;;;;5037831;28;20094;-56
2021/07/22 05:15:25;;;;;;;22.95;8.55;;;;;;;;;;5041002;28;20061;-54
2021/07/22 05:17:52;;;;;;;20.10;7.65;;;;;;;;;;5033297;28;20081;-54
2021/07/22 05:20:18;;;;;;;18.95;8.18;;;;;;;;;;5024861;28;20076;-55
2021/07/22 05:22:46;;;;;;;17.80;8.43;;;;;;;;;;5025508;28;20164;-55
2021/07/22 05:25:14;;;;;;;15.10;7.70;;;;;;;;;;5018879;28;20060;-55
2021/07/22 05:27:41;;;;;;;23.00;8.15;;;;;;;;;;5041061;28;20367;-54
2021/07/22 05:30:08;;;;;;;17.85;7.60;;;;;;;;;;5014979;28;20045;-55
2021/07/22 05:32:34;;;;;;;19.80;8.00;;;;;;;;;;5023309;28;20049;-53
2021/07/22 05:35:01;;;;;;;18.27;7.97;;;;;;;;;;5026431;28;20030;-54
2021/07/22 05:37:28;;;;;;;16.08;7.68;;;;;;;;;;5039473;28;20041;-55
2021/07/22 05:39:56;;;;;;;17.48;7.93;;;;;;;;;;5035351;28;20041;-55
2021/07/22 05:42:22;;;;;;;17.92;7.63;;;;;;;;;;5039618;28;20164;-52
2021/07/22 05:44:49;;;;;;;14.95;7.45;;;;;;;;;;5016594;28;20036;-55
2021/07/22 05:47:15;;;;;;;17.75;8.27;;;;;;;;;;5021404;28;20127;-54
2021/07/22 05:49:42;;;;;;;13.95;7.15;;;;;;;;;;5012522;28;20080;-53
2021/07/22 05:52:08;;;;;;;21.30;8.25;;;;;;;;;;5023286;28;20033;-54
2021/07/22 05:54:35;;;;;;;17.75;6.85;;;;;;;;;;5017507;28;20045;-49
2021/07/22 05:57:03;;;;;;;18.77;8.13;;;;;;;;;;5040808;28;20055;-56
2021/07/22 05:59:29;;;;;;;23.00;8.27;;;;;;;;;;5025085;28;20115;-54
2021/07/22 06:01:56;;;;;;;16.33;7.68;;;;;;;;;;5039293;28;20104;-54
2021/07/22 06:04:22;;;;;;;18.20;7.85;;;;;;;;;;5018044;28;20038;-56
2021/07/22 06:06:49;;;;;;;21.15;7.75;;;;;;;;;;5032246;28;20030;-53
2021/07/22 06:09:16;;;;;;;17.25;7.68;;;;;;;;;;5035982;28;20044;-53
2021/07/22 06:11:42;;;;;;;20.23;7.93;;;;;;;;;;5016002;28;20033;-53
2021/07/22 06:14:10;;;;;;;15.93;7.85;;;;;;;;;;5021707;28;20056;-56
2021/07/22 06:16:37;;;;;;;22.25;8.57;;;;;;;;;;5017226;28;20108;-53
2021/07/22 06:19:03;;;;;;;16.23;8.38;;;;;;;;;;5021484;28;20042;-56
2021/07/22 06:21:30;;;;;;;16.73;7.70;;;;;;;;;;5013876;28;20400;-55
2021/07/22 06:23:56;;;;;;;20.33;7.50;;;;;;;;;;5023332;28;20105;-56
2021/07/22 06:26:23;;;;;;;17.27;7.38;;;;;;;;;;5020685;28;20057;-54
2021/07/22 06:28:52;;;;;;;15.05;7.57;;;;;;;;;;5016677;28;20041;-55
2021/07/22 06:31:20;;;;;;;16.23;7.45;;;;;;;;;;5032648;28;20065;-55
2021/07/22 06:33:46;;;;;;;16.65;7.90;;;;;;;;;;5024643;28;20049;-56
2021/07/22 06:36:13;;;;;;;18.23;8.10;;;;;;;;;;5023140;28;20123;-55
2021/07/22 06:38:39;;;;;;;15.07;7.25;;;;;;;;;;5025548;28;20038;-54
2021/07/22 06:41:10;;;;;;;15.70;6.68;;;;;;;;;;5016790;28;20034;-55
2021/07/22 06:43:37;;;;;;;16.13;6.97;;;;;;;;;;5028414;28;20056;-55
2021/07/22 06:46:03;;;;;;;20.90;7.63;;;;;;;;;;5039231;28;20049;-56
2021/07/22 06:48:31;;;;;;;18.88;8.00;;;;;;;;;;5001647;28;20133;-55
2021/07/22 06:50:58;;;;;;;13.75;6.72;;;;;;;;;;5002635;28;20058;-56
2021/07/22 06:53:24;;;;;;;16.63;7.70;;;;;;;;;;5024511;28;20053;-55
2021/07/22 06:55:54;;;;;;;14.45;7.05;;;;;;;;;;5022360;28;20049;-57
2021/07/22 06:58:21;;;;;;;15.63;7.38;;;;;;;;;;5030565;28;20046;-55
2021/07/22 07:00:47;;;;;;;15.75;7.80;;;;;;;;;;5036682;28;20063;-57
2021/07/22 07:03:14;;;;;;;15.15;7.13;;;;;;;;;;5008877;28;20062;-56
2021/07/22 07:05:42;;;;;;;17.77;7.15;;;;;;;;;;5019981;28;20035;-56
2021/07/22 07:08:08;;;;;;;17.80;7.22;;;;;;;;;;5001254;28;20053;-56
2021/07/22 07:10:37;;;;;;;17.77;6.70;;;;;;;;;;5021024;28;20038;-57
2021/07/22 07:13:03;;;;;;;13.45;6.50;;;;;;;;;;5017997;28;20034;-54
2021/07/22 07:15:30;;;;;;;13.45;6.43;;;;;;;;;;5005171;28;20037;-56
2021/07/22 07:17:57;;;;;;;14.18;5.97;;;;;;;;;;5007385;28;20045;-56
2021/07/22 07:20:24;;;;;;;20.73;6.88;;;;;;;;;;5039385;28;20111;-55
2021/07/22 07:22:53;;;;;;;15.65;6.25;;;;;;;;;;5037412;28;20152;-56
2021/07/22 07:25:20;;;;;;;13.68;6.35;;;;;;;;;;5040672;28;20134;-56
2021/07/22 07:27:48;;;;;;;12.38;5.82;;;;;;;;;;5039152;28;20044;-56
2021/07/22 07:30:16;;;;;;;14.65;6.07;;;;;;;;;;5004399;28;20049;-55
2021/07/22 07:32:42;;;;;;;17.42;5.80;;;;;;;;;;5006075;28;20049;-57
2021/07/22 07:35:10;;;;;;;11.98;5.85;;;;;;;;;;5017344;28;20045;-53
2021/07/22 07:37:37;;;;;;;13.57;5.85;;;;;;;;;;5036261;28;20048;-56
2021/07/22 07:40:05;;;;;;;10.43;5.40;;;;;;;;;;5006272;28;20053;-57
2021/07/22 07:42:31;;;;;;;;;;;;;;;;;;5006476;28;20060;-56
2021/07/22 07:44:58;;;;;;;12.30;5.72;;;;;;;;;;5036280;28;19917;-55
2021/07/22 07:47:25;;;;;;;14.85;5.25;;;;;;;;;;5042209;28;20053;-56
2021/07/22 07:49:53;;;;;;;12.57;5.32;;;;;;;;;;5027169;28;20033;-56
2021/07/22 07:52:19;;;;;;;12.82;5.00;;;;;;;;;;5005462;28;20077;-56
2021/07/22 07:54:49;;;;;;;12.75;4.57;;;;;;;;;;5026407;28;20052;-56
2021/07/22 07:57:18;;;;;;;13.18;5.55;;;;;;;;;;5024305;28;20033;-56
2021/07/22 07:59:46;;;;;;;9.68;4.53;;;;;;;;;;5037162;28;20057;-57
2021/07/22 08:02:14;;;;;;;12.45;5.35;;;;;;;;;;5040376;28;20033;-55
2021/07/22 08:04:40;;;;;;;11.27;5.28;;;;;;;;;;5039170;28;20048;-55
2021/07/22 08:07:08;;;;;;;14.85;4.57;;;;;;;;;;5043327;28;20037;-58
2021/07/22 08:09:34;;;;;;;9.23;4.32;;;;;;;;;;5034983;28;20088;-55
2021/07/22 08:12:03;;;;;;;14.23;4.47;;;;;;;;;;5041291;28;20041;-52
2021/07/22 08:14:36;;;;;;;10.40;4.28;;;;;;;;;;5040901;28;20037;-57
2021/07/22 08:17:04;;;;;;;12.98;4.07;;;;;;;;;;5033856;28;20073;-52
2021/07/22 08:19:30;;;;;;;10.23;3.97;;;;;;;;;;5039599;28;20042;-55
2021/07/22 08:21:57;;;;;;;8.05;3.63;;;;;;;;;;5036554;28;20046;-56
2021/07/22 08:24:23;;;;;;;9.65;4.03;;;;;;;;;;5006093;28;20050;-57
2021/07/22 08:26:50;;;;;;;10.13;4.88;;;;;;;;;;5030061;28;20056;-56
2021/07/22 08:29:16;;;;;;;13.40;4.22;;;;;;;;;;5022524;28;20042;-57
2021/07/22 08:31:44;;;;;;;10.23;4.30;;;;;;;;;;5002832;28;20038;-57
2021/07/22 08:34:12;;;;;;;16.45;4.95;;;;;;;;;;5006182;28;20127;-56
2021/07/22 08:36:38;;;;;;;13.88;5.15;;;;;;;;;;5002735;28;20049;-57
2021/07/22 08:39:05;;;;;;;8.40;4.70;;;;;;;;;;5023756;28;20107;-55
2021/07/22 08:41:31;;;;;;;13.40;4.85;;;;;;;;;;5022644;28;20038;-57
2021/07/22 08:43:59;;;;;;;9.93;4.43;;;;;;;;;;5026077;28;20044;-57
2021/07/22 08:46:28;;;;;;;;;;;;;;;;;;5040590;28;20057;-56
2021/07/22 08:48:57;;;;;;;9.38;4.80;;;;;;;;;;5043400;28;19917;-57
2021/07/22 08:51:25;;;;;;;12.82;4.63;;;;;;;;;;5039760;28;20048;-57
2021/07/22 08:53:52;;;;;;;11.32;4.85;;;;;;;;;;5041864;28;20046;-57
2021/07/22 08:56:23;;;;;;;10.52;4.45;;;;;;;;;;5023441;28;20048;-57
2021/07/22 08:58:49;;;;;;;11.18;4.63;;;;;;;;;;5023824;28;20111;-57
2021/07/22 09:01:17;;;;;;;9.32;4.00;;;;;;;;;;5006903;28;20123;-57
2021/07/22 09:03:45;;;;;;;10.07;3.92;;;;;;;;;;5040580;28;20045;-58
2021/07/22 09:06:16;;;;;;;9.77;4.07;;;;;;;;;;5019369;28;20119;-56
2021/07/22 09:08:43;;;;;;;11.07;4.70;;;;;;;;;;5023489;28;20041;-56
2021/07/22 09:11:11;;;;;;;8.27;4.18;;;;;;;;;;5041220;28;20089;-56
2021/07/22 09:13:37;;;;;;;14.05;5.32;;;;;;;;;;5038005;28;20044;-57
2021/07/22 09:16:04;;;;;;;8.18;4.40;;;;;;;;;;5027040;28;20041;-56
2021/07/22 09:18:35;;;;;;;9.75;4.70;;;;;;;;;;5023261;28;20057;-56
2021/07/22 09:21:16;;;;;;;9.70;4.40;;;;;;;;;;5043447;28;20037;-56
2021/07/22 09:24:02;;;;;;;18.98;3.97;;;;;;;;;;5021518;28;20037;-57
2021/07/22 09:26:30;;;;;;;8.18;4.00;;;;;;;;;;5042600;28;20041;-56
2021/07/22 09:28:58;;;;;;;;;;;;;;;;;;5037854;28;20033;-57
2021/07/22 09:31:27;;;;;;;9.80;4.53;;;;;;;;;;5024538;28;19937;-58
2021/07/22 09:33:53;;;;;;;7.72;4.25;;;;;;;;;;5013169;28;20042;-57
2021/07/22 09:36:32;;;;;;;11.50;4.80;;;;;;;;;;5022688;28;20085;-57
2021/07/22 09:39:13;;;;;;;10.52;4.57;;;;;;;;;;5026744;28;20045;-56
2021/07/22 09:41:41;;;;;;;9.50;4.43;;;;;;;;;;5043267;28;20085;-56
2021/07/22 09:44:26;;;;;;;9.90;4.60;;;;;;;;;;5027526;28;20046;-57
2021/07/22 09:46:55;;;;;;;9.70;4.30;;;;;;;;;;5022000;28;20053;-56
2021/07/22 09:49:29;;;;;;;9.55;4.47;;;;;;;;;;5032396;28;20056;-57
2021/07/22 09:51:58;;;;;;;9.65;4.60;;;;;;;;;;5022533;28;20038;-58
2021/07/22 09:54:32;;;;;;;11.18;4.80;;;;;;;;;;5018886;28;20060;-58
2021/07/22 09:57:01;;;;;;;8.95;4.30;;;;;;;;;;5023490;28;20041;-56
2021/07/22 09:59:28;;;;;;;12.60;4.30;;;;;;;;;;5024961;28;20053;-56
2021/07/22 10:01:57;;;;;;;12.38;4.60;;;;;;;;;;5042748;28;20045;-57
2021/07/22 10:04:24;;;;;;;9.45;4.32;;;;;;;;;;5031029;28;20050;-56
2021/07/22 10:06:51;;;;;;;8.73;4.43;;;;;;;;;;5003422;28;20034;-57
2021/07/22 10:09:18;;;;;;;11.32;4.90;;;;;;;;;;5000275;28;20124;-55
2021/07/22 10:11:44;;;;;;;12.35;4.13;;;;;;;;;;5017223;28;20058;-56
2021/07/22 10:14:15;;;;;;;9.15;4.25;;;;;;;;;;5003942;28;20042;-57
2021/07/22 10:16:41;;;;;;;11.45;4.35;;;;;;;;;;5015009;28;20039;-56
2021/07/22 10:19:08;;;;;;;7.55;4.10;;;;;;;;;;5003738;28;20138;-57
2021/07/22 10:21:35;;;;;;;9.30;4.13;;;;;;;;;;5015278;28;20058;-56
2021/07/22 10:24:01;;;;;;;7.97;3.65;;;;;;;;;;5017098;28;20045;-56
2021/07/22 10:26:28;;;;;;;9.15;4.10;;;;;;;;;;5016877;28;20046;-56
2021/07/22 10:28:54;;;;;;;9.45;4.15;;;;;;;;;;5018458;28;20042;-57
2021/07/22 10:31:22;;;;;;;6.72;3.40;;;;;;;;;;4999559;28;20057;-56
2021/07/22 10:33:49;;;;;;;12.68;4.30;;;;;;;;;;5019995;28;20050;-57
2021/07/22 10:36:19;;;;;;;9.55;4.07;;;;;;;;;;4999978;28;20209;-57
2021/07/22 10:38:47;;;;;;;9.15;4.28;;;;;;;;;;5002212;28;20038;-58
2021/07/22 10:41:33;;;;;;;9.68;4.10;;;;;;;;;;4996686;28;20042;-56
2021/07/22 10:43:59;;;;;;;7.45;3.78;;;;;;;;;;5001921;28;20042;-55
2021/07/22 10:46:47;;;;;;;9.23;4.28;;;;;;;;;;4997141;28;20078;-56
2021/07/22 10:49:15;;;;;;;10.93;4.53;;;;;;;;;;5000602;28;20050;-57
2021/07/22 10:51:42;;;;;;;10.63;4.65;;;;;;;;;;4998652;28;20049;-57
2021/07/22 10:54:08;;;;;;;10.95;3.80;;;;;;;;;;5019141;28;20038;-57
2021/07/22 10:56:51;;;;;;;11.73;5.00;;;;;;;;;;4998671;28;20100;-56
2021/07/22 10:59:17;;;;;;;13.13;4.55;;;;;;;;;;5017927;28;20046;-57
2021/07/22 11:01:56;;;;;;;11.65;4.22;;;;;;;;;;5015030;28;20034;-57
2021/07/22 11:04:41;;;;;;;8.98;4.22;;;;;;;;;;5020671;28;20049;-56
2021/07/22 11:07:15;;;;;;;7.65;4.13;;;;;;;;;;5019062;28;20038;-58
2021/07/22 11:09:42;;;;;;;11.30;3.92;;;;;;;;;;5019318;28;20053;-56
2021/07/22 11:12:10;;;;;;;11.65;4.03;;;;;;;;;;5019497;28;20049;-57
2021/07/22 11:14:37;;;;;;;10.45;4.53;;;;;;;;;;5022904;28;20049;-57
2021/07/22 11:17:04;;;;;;;13.18;5.10;;;;;;;;;;5034198;28;20077;-57
2021/07/22 11:19:30;;;;;;;14.37;4.93;;;;;;;;;;5037812;28;20049;-57
2021/07/22 11:21:58;;;;;;;11.63;4.45;;;;;;;;;;5017719;28;20048;-57
2021/07/22 11:24:27;;;;;;;13.05;4.40;;;;;;;;;;5019000;28;20046;-55
2021/07/22 11:26:55;;;;;;;8.52;4.00;;;;;;;;;;5023337;28;20053;-57
2021/07/22 11:29:22;;;;;;;17.42;5.00;;;;;;;;;;5016909;28;20120;-56
2021/07/22 11:31:49;;;;;;;9.32;4.38;;;;;;;;;;5021644;28;20045;-56
2021/07/22 11:34:17;;;;;;;9.13;4.25;;;;;;;;;;5020912;28;20046;-55
2021/07/22 11:36:43;;;;;;;13.18;5.15;;;;;;;;;;5000974;28;20062;-57
2021/07/22 11:39:11;;;;;;;11.38;4.63;;;;;;;;;;5011437;28;20128;-57
2021/07/22 11:41:38;;;;;;;11.85;4.30;;;;;;;;;;5005010;28;20034;-57
2021/07/22 11:44:07;;;;;;;8.77;4.28;;;;;;;;;;5015674;28;20110;-56
2021/07/22 11:46:35;;;;;;;10.65;4.43;;;;;;;;;;5001017;28;20030;-56
2021/07/22 11:49:04;;;;;;;12.00;4.57;;;;;;;;;;5005682;28;20037;-56
2021/07/22 11:51:31;;;;;;;7.57;4.43;;;;;;;;;;5036706;28;20046;-57
2021/07/22 11:53:59;;;;;;;6.25;3.58;;;;;;;;;;5030315;28;20030;-57
2021/07/22 11:56:32;;;;;;;8.52;3.53;;;;;;;;;;5018034;28;20139;-57
2021/07/22 11:58:59;;;;;;;10.35;4.10;;;;;;;;;;5016363;28;20045;-55
2021/07/22 12:01:25;;;;;;;9.82;3.38;;;;;;;;;;5037631;28;20045;-57
2021/07/22 12:03:52;;;;;;;10.95;4.10;;;;;;;;;;5034124;28;20077;-57
2021/07/22 12:06:23;;;;;;;8.75;3.13;;;;;;;;;;5023757;28;20041;-57
2021/07/22 12:09:05;;;;;;;8.43;3.78;;;;;;;;;;5020674;28;20050;-58
2021/07/22 12:11:44;;;;;;;9.55;3.80;;;;;;;;;;5019686;28;20063;-57
2021/07/22 12:14:10;;;;;;;10.18;4.15;;;;;;;;;;5016322;28;20049;-56
2021/07/22 12:16:40;;;;;;;8.20;3.58;;;;;;;;;;5013035;28;20046;-56
2021/07/22 12:19:07;;;;;;;9.88;3.50;;;;;;;;;;5001209;28;20042;-57
2021/07/22 12:21:33;;;;;;;7.40;3.30;;;;;;;;;;5013538;28;20089;-57
2021/07/22 12:24:16;;;;;;;8.70;3.47;;;;;;;;;;5021460;28;20056;-57
2021/07/22 12:26:45;;;;;;;13.60;3.53;;;;;;;;;;5003664;28;20056;-57
2021/07/22 12:29:17;;;;;;;10.55;4.18;;;;;;;;;;5002028;28;20038;-57
2021/07/22 12:31:43;;;;;;;7.38;3.40;;;;;;;;;;5015186;28;20135;-58
2021/07/22 12:34:10;;;;;;;8.02;3.47;;;;;;;;;;5001776;28;20058;-57
2021/07/22 12:36:38;;;;;;;10.23;3.72;;;;;;;;;;5009421;28;20046;-58
2021/07/22 12:39:04;;;;;;;;;;;;;;;;;;5022622;28;20120;-58
2021/07/22 12:41:31;;;;;;;7.90;3.15;;;;;;;;;;5009213;28;20007;-57
2021/07/22 12:43:59;;;;;;;8.25;3.05;;;;;;;;;;5013964;28;20065;-57
2021/07/22 12:46:30;;;;;;;11.88;3.20;;;;;;;;;;5033677;28;20052;-57
2021/07/22 12:48:56;;;;;;;6.38;3.13;;;;;;;;;;5037047;28;20042;-57
2021/07/22 12:51:23;;;;;;;13.10;3.42;;;;;;;;;;5030094;28;20091;-57
2021/07/22 12:53:50;;;;;;;6.65;3.45;;;;;;;;;;5017053;28;20046;-57
2021/07/22 12:56:17;;;;;;;6.68;3.28;;;;;;;;;;5015693;28;20046;-58
2021/07/22 12:58:44;;;;;;;10.38;3.35;;;;;;;;;;5037579;28;20041;-57
2021/07/22 13:01:12;;;;;;;6.93;3.05;;;;;;;;;;5022132;28;20132;-57
2021/07/22 13:03:40;;;;;;;17.15;3.13;;;;;;;;;;5027573;28;20053;-58
2021/07/22 13:06:07;;;;;;;6.45;3.17;;;;;;;;;;5043336;28;20037;-58
2021/07/22 13:08:36;;;;;;;6.50;2.92;;;;;;;;;;5046828;28;20036;-57
2021/07/22 13:11:04;;;;;;;11.50;3.22;;;;;;;;;;5032901;28;20049;-57
2021/07/22 13:13:31;;;;;;;7.07;3.10;;;;;;;;;;5036721;28;20050;-58
2021/07/22 13:15:58;;;;;;;9.15;2.92;;;;;;;;;;5023797;28;20070;-57
2021/07/22 13:18:27;;;;;;;8.27;3.03;;;;;;;;;;5026801;28;20058;-57
2021/07/22 13:20:53;;;;;;;6.78;2.90;;;;;;;;;;5022590;28;20038;-58
2021/07/22 13:23:20;;;;;;;8.50;3.10;;;;;;;;;;5026190;28;20041;-57
2021/07/22 13:25:46;;;;;;;7.80;2.65;;;;;;;;;;5024215;28;20053;-58
2021/07/22 13:28:13;;;;;;;8.63;3.38;;;;;;;;;;5024482;28;20045;-58
2021/07/22 13:30:40;;;;;;;6.60;3.22;;;;;;;;;;5005141;28;20034;-58
2021/07/22 13:33:06;;;;;;;6.53;3.10;;;;;;;;;;5008459;28;20043;-57
2021/07/22 13:35:34;;;;;;;8.30;3.45;;;;;;;;;;5042835;28;20038;-58
2021/07/22 13:38:01;;;;;;;;;;;;;;;;;;5041532;28;20057;-58
2021/07/22 13:40:27;;;;;;;9.27;3.25;;;;;;;;;;5040786;28;19928;-58
2021/07/22 13:42:54;;;;;;;12.52;3.25;;;;;;;;;;5035609;28;20057;-57
2021/07/22 13:45:23;;;;;;;8.07;3.30;;;;;;;;;;5024596;28;20053;-58
2021/07/22 13:47:51;;;;;;;6.70;3.20;;;;;;;;;;5044034;28;20052;-57
2021/07/22 13:50:17;;;;;;;5.00;2.72;;;;;;;;;;5040107;28;20106;-58
2021/07/22 13:52:45;;;;;;;13.20;3.30;;;;;;;;;;5043117;28;20044;-56
2021/07/22 13:55:12;;;;;;;7.85;3.22;;;;;;;;;;5012872;28;20045;-57
2021/07/22 13:57:39;;;;;;;9.00;3.77;;;;;;;;;;5024289;28;20041;-58
2021/07/22 14:00:06;;;;;;;7.38;3.58;;;;;;;;;;5002237;28;20124;-58
2021/07/22 14:02:32;;;;;;;8.60;3.55;;;;;;;;;;5016215;28;20046;-58
2021/07/22 14:04:59;;;;;;;7.88;3.15;;;;;;;;;;4995639;28;20042;-57
2021/07/22 14:07:31;;;;;;;7.72;2.92;;;;;;;;;;5020161;28;20034;-58
2021/07/22 14:09:58;;;;;;;7.90;2.95;;;;;;;;;;5032138;28;20045;-58
2021/07/22 14:12:25;;;;;;;7.38;3.35;;;;;;;;;;5037062;28;20041;-58
2021/07/22 14:14:53;;;;;;;12.80;3.30;;;;;;;;;;5030354;28;20122;-58
2021/07/22 14:17:21;;;;;;;8.65;3.92;;;;;;;;;;5021196;28;20120;-58
2021/07/22 14:19:52;;;;;;;9.13;3.20;;;;;;;;;;5013316;28;20045;-58
2021/07/22 14:22:21;;;;;;;8.07;3.63;;;;;;;;;;5032407;28;20041;-58
2021/07/22 14:24:48;;;;;;;6.85;3.08;;;;;;;;;;5041457;28;20045;-58
2021/07/22 14:27:17;;;;;;;9.98;3.17;;;;;;;;;;5038911;28;20053;-56
2021/07/22 14:29:45;;;;;;;8.77;3.15;;;;;;;;;;5043578;28;20052;-58
2021/07/22 14:32:12;;;;;;;6.30;2.88;;;;;;;;;;5029583;28;20061;-58
2021/07/22 14:34:38;;;;;;;10.65;2.80;;;;;;;;;;5042202;28;20073;-58
2021/07/22 14:37:07;;;;;;;11.43;3.90;;;;;;;;;;5039503;28;20063;-58
2021/07/22 14:39:33;;;;;;;5.50;2.80;;;;;;;;;;5042646;28;20069;-58